sensor_id;sensor_type;location;lat;lon;timestamp;temperature;humidity
30186;DHT22;31152;49.190;8.122;2024-03-08T00:01:45;6.60;99.90
30186;DHT22;31152;49.190;8.122;2024-03-08T00:04:12;6.50;99.90
30186;DHT22;31152;49.190;8.122;2024-03-08T00:06:38;6.50;99.90
30186;DHT22;31152;49.190;8.122;2024-03-08T00:09:06;6.50;99.90
30186;DHT22;31152;49.190;8.122;2024-03-08T00:11:36;6.50;99.90
30186;DHT22;31152;49.190;8.122;2024-03-08T00:14:03;6.40;99.90
30186;DHT22;31152;49.190;8.122;2024-03-08T00:16:33;6.40;99.90
30186;DHT22;31152;49.190;8.122;2024-03-08T00:19:00;6.40;99.90
30186;DHT22;31152;49.190;8.122;2024-03-08T00:21:27;6.30;99.90
30186;DHT22;31152;49.190;8.122;2024-03-08T00:23:53;6.30;99.90
30186;DHT22;31152;49.190;8.122;2024-03-08T00:26:23;6.30;99.90
30186;DHT22;31152;49.190;8.122;2024-03-08T00:28:50;6.30;99.90
30186;DHT22;31152;49.190;8.122;2024-03-08T00:31:16;6.30;99.90
30186;DHT22;31152;49.190;8.122;2024-03-08T00:33:43;6.20;99.90
30186;DHT22;31152;49.190;8.122;2024-03-08T00:36:10;6.20;99.90
30186;DHT22;31152;49.190;8.122;2024-03-08T00:38:37;6.20;99.90
30186;DHT22;31152;49.190;8.122;2024-03-08T00:41:04;6.10;99.90
30186;DHT22;31152;49.190;8.122;2024-03-08T00:43:30;6.10;99.90
30186;DHT22;31152;49.190;8.122;2024-03-08T00:45:57;6.10;99.90
30186;DHT22;31152;49.190;8.122;2024-03-08T00:48:27;6.00;99.90
30186;DHT22;31152;49.190;8.122;2024-03-08T00:50:54;6.00;99.90
30186;DHT22;31152;49.190;8.122;2024-03-08T00:53:21;6.00;99.90
30186;DHT22;31152;49.190;8.122;2024-03-08T00:55:47;5.90;99.90
30186;DHT22;31152;49.190;8.122;2024-03-08T00:58:14;5.90;99.90
30186;DHT22;31152;49.190;8.122;2024-03-08T01:00:41;5.90;99.90
30186;DHT22;31152;49.190;8.122;2024-03-08T01:03:11;5.90;99.90
30186;DHT22;31152;49.190;8.122;2024-03-08T01:05:37;5.80;99.90
30186;DHT22;31152;49.190;8.122;2024-03-08T01:08:05;5.80;99.90
30186;DHT22;31152;49.190;8.122;2024-03-08T01:10:31;5.80;99.90
30186;DHT22;31152;49.190;8.122;2024-03-08T01:12:58;5.70;99.90
30186;DHT22;31152;49.190;8.122;2024-03-08T01:15:26;5.70;99.90
30186;DHT22;31152;49.190;8.122;2024-03-08T01:17:53;5.60;99.90
30186;DHT22;31152;49.190;8.122;2024-03-08T01:20:20;5.60;99.90
30186;DHT22;31152;49.190;8.122;2024-03-08T01:22:47;5.60;99.90
30186;DHT22;31152;49.190;8.122;2024-03-08T01:25:14;5.60;99.90
30186;DHT22;31152;49.190;8.122;2024-03-08T01:27:40;5.50;99.90
30186;DHT22;31152;49.190;8.122;2024-03-08T01:30:07;5.50;99.90
30186;DHT22;31152;49.190;8.122;2024-03-08T01:32:36;5.50;99.90
30186;DHT22;31152;49.190;8.122;2024-03-08T01:35:03;5.50;99.90
30186;DHT22;31152;49.190;8.122;2024-03-08T01:37:29;5.40;99.90
30186;DHT22;31152;49.190;8.122;2024-03-08T01:39:56;5.40;99.90
30186;DHT22;31152;49.190;8.122;2024-03-08T01:42:23;5.40;99.90
30186;DHT22;31152;49.190;8.122;2024-03-08T01:44:49;5.30;99.90
30186;DHT22;31152;49.190;8.122;2024-03-08T01:47:18;5.30;99.90
30186;DHT22;31152;49.190;8.122;2024-03-08T01:49:44;5.30;99.90
30186;DHT22;31152;49.190;8.122;2024-03-08T01:52:11;5.30;99.90
30186;DHT22;31152;49.190;8.122;2024-03-08T01:54:38;5.20;99.90
30186;DHT22;31152;49.190;8.122;2024-03-08T01:57:07;5.20;99.90
30186;DHT22;31152;49.190;8.122;2024-03-08T01:59:34;5.20;99.90
30186;DHT22;31152;49.190;8.122;2024-03-08T02:02:01;5.10;99.90
30186;DHT22;31152;49.190;8.122;2024-03-08T02:04:29;5.10;99.90
30186;DHT22;31152;49.190;8.122;2024-03-08T02:06:57;5.10;99.90
30186;DHT22;31152;49.190;8.122;2024-03-08T02:09:27;5.00;99.90
30186;DHT22;31152;49.190;8.122;2024-03-08T02:11:54;5.00;99.90
30186;DHT22;31152;49.190;8.122;2024-03-08T02:14:21;5.00;99.90
30186;DHT22;31152;49.190;8.122;2024-03-08T02:16:48;4.90;99.90
30186;DHT22;31152;49.190;8.122;2024-03-08T02:19:15;4.90;99.90
30186;DHT22;31152;49.190;8.122;2024-03-08T02:21:41;4.80;99.90
30186;DHT22;31152;49.190;8.122;2024-03-08T02:24:08;4.80;99.90
30186;DHT22;31152;49.190;8.122;2024-03-08T02:26:35;4.80;99.90
30186;DHT22;31152;49.190;8.122;2024-03-08T02:29:02;4.80;99.90
30186;DHT22;31152;49.190;8.122;2024-03-08T02:31:28;4.70;99.90
30186;DHT22;31152;49.190;8.122;2024-03-08T02:33:55;4.70;99.90
30186;DHT22;31152;49.190;8.122;2024-03-08T02:36:22;4.70;99.90
30186;DHT22;31152;49.190;8.122;2024-03-08T02:38:49;4.60;99.90
30186;DHT22;31152;49.190;8.122;2024-03-08T02:41:15;4.60;99.90
30186;DHT22;31152;49.190;8.122;2024-03-08T02:43:42;4.50;99.90
30186;DHT22;31152;49.190;8.122;2024-03-08T02:46:09;4.50;99.90
30186;DHT22;31152;49.190;8.122;2024-03-08T02:48:36;4.50;99.90
30186;DHT22;31152;49.190;8.122;2024-03-08T02:51:03;4.50;99.90
30186;DHT22;31152;49.190;8.122;2024-03-08T02:53:30;4.40;99.90
30186;DHT22;31152;49.190;8.122;2024-03-08T02:55:56;4.40;99.90
30186;DHT22;31152;49.190;8.122;2024-03-08T02:58:23;4.30;99.90
30186;DHT22;31152;49.190;8.122;2024-03-08T03:00:52;4.30;99.90
30186;DHT22;31152;49.190;8.122;2024-03-08T03:03:19;4.30;99.90
30186;DHT22;31152;49.190;8.122;2024-03-08T03:05:46;4.30;99.90
30186;DHT22;31152;49.190;8.122;2024-03-08T03:08:15;4.30;99.90
30186;DHT22;31152;49.190;8.122;2024-03-08T03:10:44;4.20;99.90
30186;DHT22;31152;49.190;8.122;2024-03-08T03:13:10;4.20;99.90
30186;DHT22;31152;49.190;8.122;2024-03-08T03:15:38;4.10;99.90
30186;DHT22;31152;49.190;8.122;2024-03-08T03:18:08;4.10;99.90
30186;DHT22;31152;49.190;8.122;2024-03-08T03:20:35;4.10;99.90
30186;DHT22;31152;49.190;8.122;2024-03-08T03:23:08;4.00;99.90
30186;DHT22;31152;49.190;8.122;2024-03-08T03:25:35;4.00;99.90
30186;DHT22;31152;49.190;8.122;2024-03-08T03:28:02;4.00;99.90
30186;DHT22;31152;49.190;8.122;2024-03-08T03:30:34;4.00;99.90
30186;DHT22;31152;49.190;8.122;2024-03-08T03:33:03;3.90;99.90
30186;DHT22;31152;49.190;8.122;2024-03-08T03:35:34;3.90;99.90
30186;DHT22;31152;49.190;8.122;2024-03-08T03:38:03;3.90;99.90
30186;DHT22;31152;49.190;8.122;2024-03-08T03:40:38;3.90;99.90
30186;DHT22;31152;49.190;8.122;2024-03-08T03:43:05;3.90;99.90
30186;DHT22;31152;49.190;8.122;2024-03-08T03:45:31;3.80;99.90
30186;DHT22;31152;49.190;8.122;2024-03-08T03:48:02;3.80;99.90
30186;DHT22;31152;49.190;8.122;2024-03-08T03:50:29;3.80;99.90
30186;DHT22;31152;49.190;8.122;2024-03-08T03:52:56;3.70;99.90
30186;DHT22;31152;49.190;8.122;2024-03-08T03:55:25;3.70;99.90
30186;DHT22;31152;49.190;8.122;2024-03-08T03:57:54;3.70;99.90
30186;DHT22;31152;49.190;8.122;2024-03-08T04:00:21;3.60;99.90
30186;DHT22;31152;49.190;8.122;2024-03-08T04:02:47;3.70;99.90
30186;DHT22;31152;49.190;8.122;2024-03-08T04:05:14;3.60;99.90
30186;DHT22;31152;49.190;8.122;2024-03-08T04:07:41;3.60;99.90
30186;DHT22;31152;49.190;8.122;2024-03-08T04:10:08;3.50;99.90
30186;DHT22;31152;49.190;8.122;2024-03-08T04:12:38;3.50;99.90
30186;DHT22;31152;49.190;8.122;2024-03-08T04:15:04;3.50;99.90
30186;DHT22;31152;49.190;8.122;2024-03-08T04:17:34;3.40;99.90
30186;DHT22;31152;49.190;8.122;2024-03-08T04:20:03;3.40;99.90
30186;DHT22;31152;49.190;8.122;2024-03-08T04:22:36;3.40;99.90
30186;DHT22;31152;49.190;8.122;2024-03-08T04:25:03;3.40;99.90
30186;DHT22;31152;49.190;8.122;2024-03-08T04:27:30;3.30;99.90
30186;DHT22;31152;49.190;8.122;2024-03-08T04:29:56;3.30;99.90
30186;DHT22;31152;49.190;8.122;2024-03-08T04:32:23;3.30;99.90
30186;DHT22;31152;49.190;8.122;2024-03-08T04:34:50;3.30;99.90
30186;DHT22;31152;49.190;8.122;2024-03-08T04:37:17;3.20;99.90
30186;DHT22;31152;49.190;8.122;2024-03-08T04:39:48;3.30;99.90
30186;DHT22;31152;49.190;8.122;2024-03-08T04:42:15;3.20;99.90
30186;DHT22;31152;49.190;8.122;2024-03-08T04:44:42;3.20;99.90
30186;DHT22;31152;49.190;8.122;2024-03-08T04:47:09;3.20;99.90
30186;DHT22;31152;49.190;8.122;2024-03-08T04:49:37;3.20;99.90
30186;DHT22;31152;49.190;8.122;2024-03-08T04:52:06;3.20;99.90
30186;DHT22;31152;49.190;8.122;2024-03-08T04:54:35;3.20;99.90
30186;DHT22;31152;49.190;8.122;2024-03-08T04:57:05;3.20;99.90
30186;DHT22;31152;49.190;8.122;2024-03-08T04:59:35;3.10;99.90
30186;DHT22;31152;49.190;8.122;2024-03-08T05:02:02;3.20;99.90
30186;DHT22;31152;49.190;8.122;2024-03-08T05:04:29;3.10;99.90
30186;DHT22;31152;49.190;8.122;2024-03-08T05:06:56;3.10;99.90
30186;DHT22;31152;49.190;8.122;2024-03-08T05:09:23;3.10;99.90
30186;DHT22;31152;49.190;8.122;2024-03-08T05:11:52;3.00;99.90
30186;DHT22;31152;49.190;8.122;2024-03-08T05:14:19;3.00;99.90
30186;DHT22;31152;49.190;8.122;2024-03-08T05:16:47;3.00;99.90
30186;DHT22;31152;49.190;8.122;2024-03-08T05:19:17;3.00;99.90
30186;DHT22;31152;49.190;8.122;2024-03-08T05:21:44;3.00;99.90
30186;DHT22;31152;49.190;8.122;2024-03-08T05:24:10;3.00;99.90
30186;DHT22;31152;49.190;8.122;2024-03-08T05:26:37;3.00;99.90
30186;DHT22;31152;49.190;8.122;2024-03-08T05:29:04;2.90;99.90
30186;DHT22;31152;49.190;8.122;2024-03-08T05:31:32;2.90;99.90
30186;DHT22;31152;49.190;8.122;2024-03-08T05:34:02;2.90;99.90
30186;DHT22;31152;49.190;8.122;2024-03-08T05:36:34;2.90;99.90
30186;DHT22;31152;49.190;8.122;2024-03-08T05:39:03;2.90;99.90
30186;DHT22;31152;49.190;8.122;2024-03-08T05:41:32;2.90;99.90
30186;DHT22;31152;49.190;8.122;2024-03-08T05:43:59;2.90;99.90
30186;DHT22;31152;49.190;8.122;2024-03-08T05:46:28;2.90;99.90
30186;DHT22;31152;49.190;8.122;2024-03-08T05:48:55;2.90;99.90
30186;DHT22;31152;49.190;8.122;2024-03-08T05:51:25;2.90;99.90
30186;DHT22;31152;49.190;8.122;2024-03-08T05:53:56;2.80;99.90
30186;DHT22;31152;49.190;8.122;2024-03-08T05:56:25;2.80;99.90
30186;DHT22;31152;49.190;8.122;2024-03-08T05:58:52;2.90;99.90
30186;DHT22;31152;49.190;8.122;2024-03-08T06:01:19;2.90;99.90
30186;DHT22;31152;49.190;8.122;2024-03-08T06:03:48;3.00;99.90
30186;DHT22;31152;49.190;8.122;2024-03-08T06:06:15;3.00;99.90
30186;DHT22;31152;49.190;8.122;2024-03-08T06:08:44;3.00;99.90
30186;DHT22;31152;49.190;8.122;2024-03-08T06:11:15;3.10;99.90
30186;DHT22;31152;49.190;8.122;2024-03-08T06:13:44;3.10;99.90
30186;DHT22;31152;49.190;8.122;2024-03-08T06:16:11;3.10;99.90
30186;DHT22;31152;49.190;8.122;2024-03-08T06:18:40;3.10;99.90
30186;DHT22;31152;49.190;8.122;2024-03-08T06:21:08;3.20;99.90
30186;DHT22;31152;49.190;8.122;2024-03-08T06:23:42;3.20;99.90
30186;DHT22;31152;49.190;8.122;2024-03-08T06:26:09;3.20;99.90
30186;DHT22;31152;49.190;8.122;2024-03-08T06:28:36;3.20;99.90
30186;DHT22;31152;49.190;8.122;2024-03-08T06:31:02;3.30;99.90
30186;DHT22;31152;49.190;8.122;2024-03-08T06:33:29;3.30;99.90
30186;DHT22;31152;49.190;8.122;2024-03-08T06:35:57;3.30;99.90
30186;DHT22;31152;49.190;8.122;2024-03-08T06:38:24;3.30;99.90
30186;DHT22;31152;49.190;8.122;2024-03-08T06:40:52;3.40;99.90
30186;DHT22;31152;49.190;8.122;2024-03-08T06:43:18;3.40;99.90
30186;DHT22;31152;49.190;8.122;2024-03-08T06:45:45;3.50;99.90
30186;DHT22;31152;49.190;8.122;2024-03-08T06:48:18;3.50;99.90
30186;DHT22;31152;49.190;8.122;2024-03-08T06:50:47;3.60;99.90
30186;DHT22;31152;49.190;8.122;2024-03-08T06:53:14;3.60;99.90
30186;DHT22;31152;49.190;8.122;2024-03-08T06:55:43;3.70;99.90
30186;DHT22;31152;49.190;8.122;2024-03-08T06:58:11;3.80;99.90
30186;DHT22;31152;49.190;8.122;2024-03-08T07:00:37;3.90;99.90
30186;DHT22;31152;49.190;8.122;2024-03-08T07:03:07;3.90;99.90
30186;DHT22;31152;49.190;8.122;2024-03-08T07:05:34;4.00;99.90
30186;DHT22;31152;49.190;8.122;2024-03-08T07:08:02;4.10;99.90
30186;DHT22;31152;49.190;8.122;2024-03-08T07:10:28;4.20;99.90
30186;DHT22;31152;49.190;8.122;2024-03-08T07:12:55;4.30;99.90
30186;DHT22;31152;49.190;8.122;2024-03-08T07:15:22;4.40;99.90
30186;DHT22;31152;49.190;8.122;2024-03-08T07:17:52;4.50;99.90
30186;DHT22;31152;49.190;8.122;2024-03-08T07:20:19;4.60;99.90
30186;DHT22;31152;49.190;8.122;2024-03-08T07:22:48;4.70;99.90
30186;DHT22;31152;49.190;8.122;2024-03-08T07:25:18;4.80;99.90
30186;DHT22;31152;49.190;8.122;2024-03-08T07:27:50;4.90;99.90
30186;DHT22;31152;49.190;8.122;2024-03-08T07:30:20;4.90;99.90
30186;DHT22;31152;49.190;8.122;2024-03-08T07:33:05;5.00;99.90
30186;DHT22;31152;49.190;8.122;2024-03-08T07:35:36;5.10;99.90
30186;DHT22;31152;49.190;8.122;2024-03-08T07:38:07;5.20;99.90
30186;DHT22;31152;49.190;8.122;2024-03-08T07:40:41;5.30;99.90
30186;DHT22;31152;49.190;8.122;2024-03-08T07:43:11;5.40;99.90
30186;DHT22;31152;49.190;8.122;2024-03-08T07:45:40;5.50;99.90
30186;DHT22;31152;49.190;8.122;2024-03-08T07:48:07;5.50;99.90
30186;DHT22;31152;49.190;8.122;2024-03-08T07:50:37;5.70;99.90
30186;DHT22;31152;49.190;8.122;2024-03-08T07:53:06;5.80;99.90
30186;DHT22;31152;49.190;8.122;2024-03-08T07:55:33;5.90;99.90
30186;DHT22;31152;49.190;8.122;2024-03-08T07:58:02;6.00;99.90
30186;DHT22;31152;49.190;8.122;2024-03-08T08:00:31;6.20;99.90
30186;DHT22;31152;49.190;8.122;2024-03-08T08:02:58;6.30;99.90
30186;DHT22;31152;49.190;8.122;2024-03-08T08:05:25;6.40;99.90
30186;DHT22;31152;49.190;8.122;2024-03-08T08:07:53;6.60;99.90
30186;DHT22;31152;49.190;8.122;2024-03-08T08:10:20;6.70;99.90
30186;DHT22;31152;49.190;8.122;2024-03-08T08:12:55;6.80;99.90
30186;DHT22;31152;49.190;8.122;2024-03-08T08:15:23;6.90;99.90
30186;DHT22;31152;49.190;8.122;2024-03-08T08:17:50;7.10;99.90
30186;DHT22;31152;49.190;8.122;2024-03-08T08:20:18;7.20;99.90
30186;DHT22;31152;49.190;8.122;2024-03-08T08:22:45;7.40;99.90
30186;DHT22;31152;49.190;8.122;2024-03-08T08:25:12;7.50;99.90
30186;DHT22;31152;49.190;8.122;2024-03-08T08:27:40;7.70;99.90
30186;DHT22;31152;49.190;8.122;2024-03-08T08:30:09;7.80;99.90
30186;DHT22;31152;49.190;8.122;2024-03-08T08:32:38;8.10;99.90
30186;DHT22;31152;49.190;8.122;2024-03-08T08:35:11;8.20;99.90
30186;DHT22;31152;49.190;8.122;2024-03-08T08:37:39;8.40;99.90
30186;DHT22;31152;49.190;8.122;2024-03-08T08:40:07;8.50;99.90
30186;DHT22;31152;49.190;8.122;2024-03-08T08:42:41;8.50;99.90
30186;DHT22;31152;49.190;8.122;2024-03-08T08:45:08;8.60;99.90
30186;DHT22;31152;49.190;8.122;2024-03-08T08:47:43;8.70;99.90
30186;DHT22;31152;49.190;8.122;2024-03-08T08:50:10;8.80;99.90
30186;DHT22;31152;49.190;8.122;2024-03-08T08:52:42;8.80;99.90
30186;DHT22;31152;49.190;8.122;2024-03-08T08:55:12;8.70;99.90
30186;DHT22;31152;49.190;8.122;2024-03-08T08:57:41;8.70;99.90
30186;DHT22;31152;49.190;8.122;2024-03-08T09:00:08;8.60;99.90
30186;DHT22;31152;49.190;8.122;2024-03-08T09:02:35;8.50;99.90
30186;DHT22;31152;49.190;8.122;2024-03-08T09:05:04;8.40;99.90
30186;DHT22;31152;49.190;8.122;2024-03-08T09:07:34;8.30;99.90
30186;DHT22;31152;49.190;8.122;2024-03-08T09:10:01;8.30;99.90
30186;DHT22;31152;49.190;8.122;2024-03-08T09:12:43;8.20;99.90
30186;DHT22;31152;49.190;8.122;2024-03-08T09:15:10;8.20;99.90
30186;DHT22;31152;49.190;8.122;2024-03-08T09:17:40;8.20;99.90
30186;DHT22;31152;49.190;8.122;2024-03-08T09:20:08;8.20;99.90
30186;DHT22;31152;49.190;8.122;2024-03-08T09:22:39;8.30;99.90
30186;DHT22;31152;49.190;8.122;2024-03-08T09:25:07;8.30;99.90
30186;DHT22;31152;49.190;8.122;2024-03-08T09:27:34;8.30;99.90
30186;DHT22;31152;49.190;8.122;2024-03-08T09:30:05;8.30;99.90
30186;DHT22;31152;49.190;8.122;2024-03-08T09:32:34;8.20;99.90
30186;DHT22;31152;49.190;8.122;2024-03-08T09:35:01;8.20;99.90
30186;DHT22;31152;49.190;8.122;2024-03-08T09:37:30;8.10;99.90
30186;DHT22;31152;49.190;8.122;2024-03-08T09:39:57;8.00;99.90
30186;DHT22;31152;49.190;8.122;2024-03-08T09:42:29;8.00;99.90
30186;DHT22;31152;49.190;8.122;2024-03-08T09:44:56;8.00;99.90
30186;DHT22;31152;49.190;8.122;2024-03-08T09:47:24;7.90;99.90
30186;DHT22;31152;49.190;8.122;2024-03-08T09:49:53;7.90;99.90
30186;DHT22;31152;49.190;8.122;2024-03-08T09:52:20;7.90;99.90
30186;DHT22;31152;49.190;8.122;2024-03-08T09:54:47;7.90;99.90
30186;DHT22;31152;49.190;8.122;2024-03-08T09:57:16;7.90;99.90
30186;DHT22;31152;49.190;8.122;2024-03-08T09:59:46;7.90;99.90
30186;DHT22;31152;49.190;8.122;2024-03-08T10:02:15;7.80;99.90
30186;DHT22;31152;49.190;8.122;2024-03-08T10:04:42;7.90;99.90
30186;DHT22;31152;49.190;8.122;2024-03-08T10:07:09;7.80;99.90
30186;DHT22;31152;49.190;8.122;2024-03-08T10:09:36;7.80;99.90
30186;DHT22;31152;49.190;8.122;2024-03-08T10:12:04;7.90;99.90
30186;DHT22;31152;49.190;8.122;2024-03-08T10:14:31;8.00;99.90
30186;DHT22;31152;49.190;8.122;2024-03-08T10:16:58;8.00;99.90
30186;DHT22;31152;49.190;8.122;2024-03-08T10:19:27;8.00;99.90
30186;DHT22;31152;49.190;8.122;2024-03-08T10:21:56;8.00;99.90
30186;DHT22;31152;49.190;8.122;2024-03-08T10:24:26;8.10;99.90
30186;DHT22;31152;49.190;8.122;2024-03-08T10:26:53;8.10;99.90
30186;DHT22;31152;49.190;8.122;2024-03-08T10:29:20;8.10;99.90
30186;DHT22;31152;49.190;8.122;2024-03-08T10:31:47;8.10;99.90
30186;DHT22;31152;49.190;8.122;2024-03-08T10:34:14;8.20;99.90
30186;DHT22;31152;49.190;8.122;2024-03-08T10:36:41;8.20;99.90
30186;DHT22;31152;49.190;8.122;2024-03-08T10:41:44;8.10;99.90
30186;DHT22;31152;49.190;8.122;2024-03-08T10:49:16;8.20;99.90
30186;DHT22;31152;49.190;8.122;2024-03-08T10:51:44;8.20;99.90
30186;DHT22;31152;49.190;8.122;2024-03-08T10:54:12;8.20;99.90
30186;DHT22;31152;49.190;8.122;2024-03-08T10:56:44;8.30;99.90
30186;DHT22;31152;49.190;8.122;2024-03-08T10:59:12;8.30;99.90
30186;DHT22;31152;49.190;8.122;2024-03-08T11:01:40;8.20;99.90
30186;DHT22;31152;49.190;8.122;2024-03-08T11:04:07;8.20;99.90
30186;DHT22;31152;49.190;8.122;2024-03-08T11:14:48;8.20;99.90
30186;DHT22;31152;49.190;8.122;2024-03-08T11:17:25;8.30;99.90
30186;DHT22;31152;49.190;8.122;2024-03-08T11:19:57;8.40;99.90
30186;DHT22;31152;49.190;8.122;2024-03-08T11:22:29;8.40;99.90
30186;DHT22;31152;49.190;8.122;2024-03-08T11:25:01;8.40;99.90
30186;DHT22;31152;49.190;8.122;2024-03-08T11:27:29;8.30;99.90
30186;DHT22;31152;49.190;8.122;2024-03-08T11:30:00;8.40;99.90
30186;DHT22;31152;49.190;8.122;2024-03-08T11:32:28;8.40;99.90
30186;DHT22;31152;49.190;8.122;2024-03-08T11:34:56;8.40;99.90
30186;DHT22;31152;49.190;8.122;2024-03-08T11:37:23;8.50;99.90
30186;DHT22;31152;49.190;8.122;2024-03-08T11:39:52;8.50;99.90
30186;DHT22;31152;49.190;8.122;2024-03-08T11:42:25;8.50;99.90
30186;DHT22;31152;49.190;8.122;2024-03-08T11:44:55;8.60;99.90
30186;DHT22;31152;49.190;8.122;2024-03-08T11:47:24;8.60;99.90
30186;DHT22;31152;49.190;8.122;2024-03-08T11:49:56;8.70;99.90
30186;DHT22;31152;49.190;8.122;2024-03-08T11:52:23;8.90;99.90
30186;DHT22;31152;49.190;8.122;2024-03-08T11:54:52;9.10;99.90
30186;DHT22;31152;49.190;8.122;2024-03-08T11:57:24;9.10;99.90
30186;DHT22;31152;49.190;8.122;2024-03-08T11:59:54;9.20;99.90
30186;DHT22;31152;49.190;8.122;2024-03-08T12:02:23;9.40;99.90
30186;DHT22;31152;49.190;8.122;2024-03-08T13:17:07;20.50;70.80
30186;DHT22;31152;49.190;8.122;2024-03-08T13:19:37;20.40;68.80
30186;DHT22;31152;49.190;8.122;2024-03-08T13:22:08;20.50;66.80
30186;DHT22;31152;49.190;8.122;2024-03-08T13:24:39;20.40;65.60
30186;DHT22;31152;49.190;8.122;2024-03-08T13:27:10;20.10;66.40
30186;DHT22;31152;49.190;8.122;2024-03-08T13:29:51;19.90;66.50
30186;DHT22;31152;49.190;8.122;2024-03-08T13:32:18;19.60;66.40
30186;DHT22;31152;49.190;8.122;2024-03-08T13:34:47;19.60;67.00
30186;DHT22;31152;49.190;8.122;2024-03-08T13:37:15;19.40;67.00
30186;DHT22;31152;49.190;8.122;2024-03-08T13:39:44;19.30;68.50
30186;DHT22;31152;49.190;8.122;2024-03-08T13:42:12;19.20;67.80
30186;DHT22;31152;49.190;8.122;2024-03-08T13:44:43;19.10;67.80
30186;DHT22;31152;49.190;8.122;2024-03-08T13:47:13;19.00;68.30
30186;DHT22;31152;49.190;8.122;2024-03-08T13:49:41;19.00;69.40
30186;DHT22;31152;49.190;8.122;2024-03-08T13:52:17;19.00;68.70
30186;DHT22;31152;49.190;8.122;2024-03-08T13:54:45;19.00;69.10
30186;DHT22;31152;49.190;8.122;2024-03-08T13:57:12;19.00;68.40
30186;DHT22;31152;49.190;8.122;2024-03-08T13:59:41;19.00;68.60
30186;DHT22;31152;49.190;8.122;2024-03-08T14:02:13;19.00;67.60
30186;DHT22;31152;49.190;8.122;2024-03-08T14:04:43;19.10;69.30
30186;DHT22;31152;49.190;8.122;2024-03-08T14:07:10;19.10;69.00
30186;DHT22;31152;49.190;8.122;2024-03-08T14:09:37;19.00;69.20
30186;DHT22;31152;49.190;8.122;2024-03-08T14:12:11;19.00;69.90
30186;DHT22;31152;49.190;8.122;2024-03-08T14:14:38;19.10;69.10
30186;DHT22;31152;49.190;8.122;2024-03-08T14:17:08;19.10;68.90
30186;DHT22;31152;49.190;8.122;2024-03-08T14:19:37;19.10;69.10
30186;DHT22;31152;49.190;8.122;2024-03-08T14:22:08;19.00;69.10
30186;DHT22;31152;49.190;8.122;2024-03-08T14:24:37;18.90;68.20
30186;DHT22;31152;49.190;8.122;2024-03-08T14:27:04;18.80;69.20
30186;DHT22;31152;49.190;8.122;2024-03-08T14:29:35;18.80;69.50
30186;DHT22;31152;49.190;8.122;2024-03-08T14:32:04;18.70;68.60
30186;DHT22;31152;49.190;8.122;2024-03-08T14:34:33;18.70;69.50
30186;DHT22;31152;49.190;8.122;2024-03-08T14:37:01;18.60;69.30
30186;DHT22;31152;49.190;8.122;2024-03-08T14:39:32;18.50;69.20
30186;DHT22;31152;49.190;8.122;2024-03-08T14:42:00;18.40;70.10
30186;DHT22;31152;49.190;8.122;2024-03-08T14:44:30;18.40;69.90
30186;DHT22;31152;49.190;8.122;2024-03-08T14:46:56;18.20;69.60
30186;DHT22;31152;49.190;8.122;2024-03-08T14:49:24;18.10;69.90
30186;DHT22;31152;49.190;8.122;2024-03-08T14:51:55;18.00;70.50
30186;DHT22;31152;49.190;8.122;2024-03-08T14:54:25;17.90;70.00
30186;DHT22;31152;49.190;8.122;2024-03-08T14:56:53;17.90;70.70
30186;DHT22;31152;49.190;8.122;2024-03-08T14:59:23;17.90;70.90
30186;DHT22;31152;49.190;8.122;2024-03-08T15:01:52;17.90;70.30
30186;DHT22;31152;49.190;8.122;2024-03-08T15:04:21;17.90;71.40
30186;DHT22;31152;49.190;8.122;2024-03-08T15:06:53;17.90;71.40
30186;DHT22;31152;49.190;8.122;2024-03-08T15:09:20;17.80;70.30
30186;DHT22;31152;49.190;8.122;2024-03-08T15:11:47;17.80;71.20
30186;DHT22;31152;49.190;8.122;2024-03-08T15:14:16;17.80;71.10
30186;DHT22;31152;49.190;8.122;2024-03-08T15:16:46;17.90;71.40
30186;DHT22;31152;49.190;8.122;2024-03-08T15:19:16;18.50;68.80
30186;DHT22;31152;49.190;8.122;2024-03-08T15:21:46;19.10;67.60
30186;DHT22;31152;49.190;8.122;2024-03-08T15:24:14;19.60;65.60
30186;DHT22;31152;49.190;8.122;2024-03-08T15:26:47;20.00;64.60
30186;DHT22;31152;49.190;8.122;2024-03-08T15:29:17;20.30;63.60
30186;DHT22;31152;49.190;8.122;2024-03-08T15:31:51;20.50;62.60
30186;DHT22;31152;49.190;8.122;2024-03-08T15:34:20;20.70;62.20
30186;DHT22;31152;49.190;8.122;2024-03-08T15:36:51;20.70;61.30
30186;DHT22;31152;49.190;8.122;2024-03-08T15:39:22;20.70;61.30
30186;DHT22;31152;49.190;8.122;2024-03-08T15:41:50;20.40;62.10
30186;DHT22;31152;49.190;8.122;2024-03-08T15:44:18;19.90;63.10
30186;DHT22;31152;49.190;8.122;2024-03-08T15:46:44;19.50;64.20
30186;DHT22;31152;49.190;8.122;2024-03-08T15:49:13;19.20;65.00
30186;DHT22;31152;49.190;8.122;2024-03-08T15:51:41;19.00;65.50
30186;DHT22;31152;49.190;8.122;2024-03-08T15:54:08;18.80;66.60
30186;DHT22;31152;49.190;8.122;2024-03-08T15:56:34;18.60;66.40
30186;DHT22;31152;49.190;8.122;2024-03-08T15:59:03;18.60;67.00
30186;DHT22;31152;49.190;8.122;2024-03-08T16:01:34;18.50;66.60
30186;DHT22;31152;49.190;8.122;2024-03-08T16:04:02;18.40;66.50
30186;DHT22;31152;49.190;8.122;2024-03-08T16:06:28;18.40;67.20
30186;DHT22;31152;49.190;8.122;2024-03-08T16:09:00;18.50;66.40
30186;DHT22;31152;49.190;8.122;2024-03-08T16:11:27;18.70;66.20
30186;DHT22;31152;49.190;8.122;2024-03-08T16:13:59;19.10;65.50
30186;DHT22;31152;49.190;8.122;2024-03-08T16:16:27;19.70;64.30
30186;DHT22;31152;49.190;8.122;2024-03-08T16:18:59;20.30;62.40
30186;DHT22;31152;49.190;8.122;2024-03-08T16:21:32;20.90;60.90
30186;DHT22;31152;49.190;8.122;2024-03-08T16:24:02;21.20;59.80
30186;DHT22;31152;49.190;8.122;2024-03-08T16:26:32;21.50;59.20
30186;DHT22;31152;49.190;8.122;2024-03-08T16:29:02;21.80;58.30
30186;DHT22;31152;49.190;8.122;2024-03-08T16:31:31;21.90;57.80
30186;DHT22;31152;49.190;8.122;2024-03-08T16:34:00;21.60;58.00
30186;DHT22;31152;49.190;8.122;2024-03-08T16:36:27;20.90;58.70
30186;DHT22;31152;49.190;8.122;2024-03-08T16:38:57;20.30;59.80
30186;DHT22;31152;49.190;8.122;2024-03-08T16:41:24;20.00;60.70
30186;DHT22;31152;49.190;8.122;2024-03-08T16:43:51;19.40;61.90
30186;DHT22;31152;49.190;8.122;2024-03-08T16:46:20;18.60;63.50
30186;DHT22;31152;49.190;8.122;2024-03-08T16:48:48;17.70;65.90
30186;DHT22;31152;49.190;8.122;2024-03-08T16:51:16;16.80;68.30
30186;DHT22;31152;49.190;8.122;2024-03-08T16:53:42;16.10;70.60
30186;DHT22;31152;49.190;8.122;2024-03-08T16:56:09;15.40;73.10
30186;DHT22;31152;49.190;8.122;2024-03-08T16:58:40;14.80;75.00
30186;DHT22;31152;49.190;8.122;2024-03-08T17:01:09;14.40;76.60
30186;DHT22;31152;49.190;8.122;2024-03-08T17:03:35;13.90;78.20
30186;DHT22;31152;49.190;8.122;2024-03-08T17:06:18;13.60;79.80
30186;DHT22;31152;49.190;8.122;2024-03-08T17:08:45;13.30;81.30
30186;DHT22;31152;49.190;8.122;2024-03-08T17:11:12;13.00;82.30
30186;DHT22;31152;49.190;8.122;2024-03-08T17:13:40;12.80;83.30
30186;DHT22;31152;49.190;8.122;2024-03-08T17:16:07;12.60;84.10
30186;DHT22;31152;49.190;8.122;2024-03-08T17:18:39;12.40;84.90